Check out our new PWSWeather beta!
PWSweather.com
Personal Weather Stations
Station Observations
UXOLA
Alcoy, AlcoyES

AlcoyAlcoyES

Lat: 38.70299, Lon: -0.48184

Elevation: 1935

Station Type: PCE FWS-20,

http://www.fiestasalcoy.xyz

High Low Average
Temperature 52.7°F11.5°C 38.7°F3.7°C 43.8°F6.6°C
Dew Point 43.2°F6.2°C 34.2°F1.2°C 37.7°F3.2°C
Winds 30.4 mph 48.9 kmh Calm Calm 8.0 mph S12.9 kmh S
Wind Gusts 42.5 mph68.4 kmh 2.2 mph3.5 kmh 16.0 mph25.7 kmh
Humidity 93% 69% 80%
Pressure 30.16 in1021.3 mb 29.98 in1015.2 mb -
Precipitation 2.62 in66.5 mm - -
Hour Temp Dew Point Humidity Winds Wind Gusts Pressure Precip Precip Rate Daily Precip Total
12:00 AM 51.1°F10.6°C 42.0°F5.6°C 71% Calm Calm 3.8 mph6.1 kmh 30.16 in1021.3 mb 0.00 in0.0 mm 0.00 in0.0 mm 0.00 in0.0 mm
12:15 AM 51.4°F10.8°C 42.4°F5.8°C 71% 0.7 mph E1.1 kmh E 6.0 mph9.7 kmh 30.16 in1021.3 mb 0.00 in0.0 mm 0.00 in0.0 mm 0.00 in0.0 mm
12:30 AM 52.3°F11.3°C 43.2°F6.2°C 71% 2.2 mph NW3.5 kmh NW 11.4 mph18.3 kmh 30.15 in1021.0 mb 0.00 in0.0 mm 0.00 in0.0 mm 0.00 in0.0 mm
12:45 AM 52.7°F11.5°C 43.2°F6.2°C 70% 2.2 mph WNW3.5 kmh WNW 9.8 mph15.8 kmh 30.14 in1020.7 mb 0.00 in0.0 mm 0.00 in0.0 mm 0.00 in0.0 mm
01:00 AM 52.5°F11.4°C 43.0°F6.1°C 70% 2.2 mph W3.5 kmh W 7.6 mph12.2 kmh 30.12 in1020.0 mb 0.00 in0.0 mm 0.00 in0.0 mm 0.00 in0.0 mm
01:15 AM 52.0°F11.1°C 42.5°F5.8°C 70% 0.7 mph N1.1 kmh N 6.9 mph11.1 kmh 30.12 in1020.0 mb 0.00 in0.0 mm 0.00 in0.0 mm 0.00 in0.0 mm
01:30 AM 51.6°F10.9°C 42.2°F5.7°C 70% 0.7 mph NE1.1 kmh NE 3.8 mph6.1 kmh 30.11 in1019.6 mb 0.00 in0.0 mm 0.00 in0.0 mm 0.00 in0.0 mm
01:45 AM 51.1°F10.6°C 42.0°F5.6°C 71% Calm Calm 3.1 mph5.0 kmh 30.11 in1019.6 mb 0.00 in0.0 mm 0.00 in0.0 mm 0.00 in0.0 mm
02:00 AM 50.5°F10.3°C 41.5°F5.3°C 71% 0.7 mph NW1.1 kmh NW 3.1 mph5.0 kmh 30.10 in1019.3 mb 0.00 in0.0 mm 0.00 in0.0 mm 0.00 in0.0 mm
02:15 AM 49.5°F9.7°C 40.5°F4.7°C 71% 0.7 mph NNE1.1 kmh NNE 3.1 mph5.0 kmh 30.09 in1019.0 mb 0.00 in0.0 mm 0.00 in0.0 mm 0.00 in0.0 mm
02:30 AM 48.6°F9.2°C 40.0°F4.4°C 72% 0.7 mph NW1.1 kmh NW 3.8 mph6.1 kmh 30.09 in1019.0 mb 0.00 in0.0 mm 0.00 in0.0 mm 0.00 in0.0 mm
02:45 AM 48.4°F9.1°C 40.1°F4.5°C 73% 2.2 mph N3.5 kmh N 3.1 mph5.0 kmh 30.09 in1019.0 mb 0.00 in0.0 mm 0.00 in0.0 mm 0.00 in0.0 mm
03:00 AM 48.0°F8.9°C 40.1°F4.5°C 74% 2.2 mph E3.5 kmh E 3.1 mph5.0 kmh 30.08 in1018.6 mb 0.00 in0.0 mm 0.00 in0.0 mm 0.00 in0.0 mm
03:15 AM 48.4°F9.1°C 40.5°F4.7°C 74% Calm Calm 2.2 mph3.5 kmh 30.08 in1018.6 mb 0.00 in0.0 mm 0.00 in0.0 mm 0.00 in0.0 mm
03:30 AM 48.7°F9.3°C 40.8°F4.9°C 74% 2.2 mph SE3.5 kmh SE 3.8 mph6.1 kmh 30.07 in1018.3 mb 0.00 in0.0 mm 0.00 in0.0 mm 0.00 in0.0 mm
03:45 AM 49.6°F9.8°C 41.3°F5.2°C 73% 3.1 mph WSW5.0 kmh WSW 5.4 mph8.7 kmh 30.06 in1017.9 mb 0.00 in0.0 mm 0.00 in0.0 mm 0.00 in0.0 mm
04:00 AM 49.3°F9.6°C 41.0°F5.0°C 73% 5.4 mph NW8.7 kmh NW 6.0 mph9.7 kmh 30.06 in1017.9 mb 0.00 in0.0 mm 0.00 in0.0 mm 0.00 in0.0 mm
04:15 AM 49.1°F9.5°C 41.2°F5.1°C 74% 2.2 mph NW3.5 kmh NW 9.2 mph14.8 kmh 30.05 in1017.6 mb 0.00 in0.0 mm 0.00 in0.0 mm 0.00 in0.0 mm
04:30 AM 48.6°F9.2°C 40.3°F4.6°C 73% 6.0 mph NW9.7 kmh NW 7.6 mph12.2 kmh 30.04 in1017.3 mb 0.00 in0.0 mm 0.00 in0.0 mm 0.00 in0.0 mm
04:45 AM 48.0°F8.9°C 39.8°F4.3°C 73% 4.5 mph NW7.2 kmh NW 11.4 mph18.3 kmh 30.04 in1017.3 mb 0.00 in0.0 mm 0.00 in0.0 mm 0.00 in0.0 mm
05:00 AM 47.8°F8.8°C 39.3°F4.1°C 72% 4.5 mph NW7.2 kmh NW 7.6 mph12.2 kmh 30.03 in1016.9 mb 0.00 in0.0 mm 0.00 in0.0 mm 0.00 in0.0 mm
05:15 AM 47.7°F8.7°C 39.1°F3.9°C 72% 4.5 mph NW7.2 kmh NW 9.8 mph15.8 kmh 30.02 in1016.6 mb 0.00 in0.0 mm 0.00 in0.0 mm 0.00 in0.0 mm
05:30 AM 47.3°F8.5°C 38.7°F3.7°C 72% 3.8 mph NNW6.1 kmh NNW 9.2 mph14.8 kmh 30.01 in1016.3 mb 0.00 in0.0 mm 0.00 in0.0 mm 0.00 in0.0 mm
05:45 AM 46.9°F8.3°C 38.4°F3.6°C 72% 0.7 mph NW1.1 kmh NW 9.8 mph15.8 kmh 30.01 in1016.3 mb 0.00 in0.0 mm 0.00 in0.0 mm 0.00 in0.0 mm
06:00 AM 46.8°F8.2°C 38.2°F3.4°C 72% 2.2 mph E3.5 kmh E 3.8 mph6.1 kmh 30.00 in1015.9 mb 0.00 in0.0 mm 0.00 in0.0 mm 0.00 in0.0 mm
06:15 AM 46.9°F8.3°C 38.0°F3.3°C 71% 5.4 mph NNW8.7 kmh NNW 13.6 mph21.9 kmh 30.00 in1015.9 mb 0.00 in0.0 mm 0.00 in0.0 mm 0.00 in0.0 mm
06:30 AM 46.8°F8.2°C 37.9°F3.3°C 71% 7.6 mph NW12.2 kmh NW 16.8 mph27.0 kmh 29.99 in1015.6 mb 0.00 in0.0 mm 0.00 in0.0 mm 0.00 in0.0 mm
06:45 AM 46.4°F8.0°C 37.5°F3.1°C 71% 9.2 mph NW14.8 kmh NW 11.4 mph18.3 kmh 29.99 in1015.6 mb 0.00 in0.0 mm 0.00 in0.0 mm 0.00 in0.0 mm
07:00 AM 46.4°F8.0°C 37.5°F3.1°C 71% 2.2 mph NNE3.5 kmh NNE 6.0 mph9.7 kmh 29.99 in1015.6 mb 0.00 in0.0 mm 0.00 in0.0 mm 0.00 in0.0 mm
07:15 AM 46.6°F8.1°C 37.7°F3.2°C 71% 3.1 mph E5.0 kmh E 9.8 mph15.8 kmh 29.99 in1015.6 mb 0.00 in0.0 mm 0.00 in0.0 mm 0.00 in0.0 mm
07:30 AM 46.8°F8.2°C 37.5°F3.1°C 70% 3.8 mph E6.1 kmh E 8.3 mph13.4 kmh 29.98 in1015.2 mb 0.00 in0.0 mm 0.00 in0.0 mm 0.00 in0.0 mm
07:45 AM 46.6°F8.1°C 37.0°F2.8°C 69% 4.5 mph W7.2 kmh W 7.6 mph12.2 kmh 29.99 in1015.6 mb 0.00 in0.0 mm 0.00 in0.0 mm 0.00 in0.0 mm
08:00 AM 46.4°F8.0°C 37.2°F2.9°C 70% 5.4 mph NNW8.7 kmh NNW 9.2 mph14.8 kmh 29.99 in1015.6 mb 0.00 in0.0 mm 0.00 in0.0 mm 0.00 in0.0 mm
08:15 AM 46.2°F7.9°C 37.0°F2.8°C 70% 6.0 mph NNE9.7 kmh NNE 15.9 mph25.6 kmh 29.99 in1015.6 mb 0.00 in0.0 mm 0.00 in0.0 mm 0.00 in0.0 mm
08:30 AM 45.7°F7.6°C 36.8°F2.7°C 71% 6.0 mph NNW9.7 kmh NNW 12.1 mph19.5 kmh 29.99 in1015.6 mb 0.00 in0.0 mm 0.00 in0.0 mm 0.00 in0.0 mm
08:45 AM 45.3°F7.4°C 36.5°F2.5°C 71% 7.6 mph NNW12.2 kmh NNW 13.0 mph20.9 kmh 29.99 in1015.6 mb 0.00 in0.0 mm 0.00 in0.0 mm 0.00 in0.0 mm
09:00 AM 45.0°F7.2°C 36.5°F2.5°C 72% 5.4 mph NW8.7 kmh NW 11.4 mph18.3 kmh 29.99 in1015.6 mb 0.00 in0.0 mm 0.00 in0.0 mm 0.00 in0.0 mm
09:15 AM 44.6°F7.0°C 36.5°F2.5°C 73% 4.5 mph NNW7.2 kmh NNW 12.1 mph19.5 kmh 29.99 in1015.6 mb 0.00 in0.0 mm 0.00 in0.0 mm 0.00 in0.0 mm
09:30 AM 44.6°F7.0°C 36.5°F2.5°C 73% 4.5 mph N7.2 kmh N 9.2 mph14.8 kmh 30.00 in1015.9 mb 0.00 in0.0 mm 0.00 in0.0 mm 0.00 in0.0 mm
09:45 AM 45.0°F7.2°C 37.2°F2.9°C 74% 3.1 mph SE5.0 kmh SE 3.8 mph6.1 kmh 30.00 in1015.9 mb 0.00 in0.0 mm 0.00 in0.0 mm 0.00 in0.0 mm
10:00 AM 45.0°F7.2°C 37.5°F3.1°C 75% 1.6 mph S2.6 kmh S 3.8 mph6.1 kmh 30.01 in1016.3 mb 0.00 in0.0 mm 0.00 in0.0 mm 0.00 in0.0 mm
10:15 AM 45.1°F7.3°C 37.7°F3.2°C 75% 3.8 mph SE6.1 kmh SE 8.3 mph13.4 kmh 30.02 in1016.6 mb 0.00 in0.0 mm 0.00 in0.0 mm 0.00 in0.0 mm
10:30 AM 45.0°F7.2°C 37.2°F2.9°C 74% 3.8 mph ESE6.1 kmh ESE 7.6 mph12.2 kmh 30.02 in1016.6 mb 0.00 in0.0 mm 0.00 in0.0 mm 0.00 in0.0 mm
10:45 AM 44.4°F6.9°C 36.7°F2.6°C 74% 3.1 mph SE5.0 kmh SE 13.6 mph21.9 kmh 30.03 in1016.9 mb 0.00 in0.0 mm 0.00 in0.0 mm 0.00 in0.0 mm
11:00 AM 44.2°F6.8°C 36.5°F2.5°C 74% 4.5 mph SE7.2 kmh SE 8.3 mph13.4 kmh 30.04 in1017.3 mb 0.00 in0.0 mm 0.00 in0.0 mm 0.00 in0.0 mm
11:15 AM 44.2°F6.8°C 36.5°F2.5°C 74% 3.1 mph ESE5.0 kmh ESE 9.8 mph15.8 kmh 30.04 in1017.3 mb 0.00 in0.0 mm 0.00 in0.0 mm 0.00 in0.0 mm
11:30 AM 43.9°F6.6°C 38.4°F3.6°C 81% 3.8 mph SE6.1 kmh SE 9.8 mph15.8 kmh 30.04 in1017.3 mb 0.00 in0.0 mm 0.00 in0.0 mm 0.00 in0.0 mm
11:45 AM 43.5°F6.4°C 38.4°F3.6°C 82% 8.3 mph SE13.4 kmh SE 11.4 mph18.3 kmh 30.04 in1017.3 mb 0.00 in0.0 mm 0.00 in0.0 mm 0.00 in0.0 mm
12:00 PM 43.0°F6.1°C 38.2°F3.4°C 83% 3.8 mph SE6.1 kmh SE 8.3 mph13.4 kmh 30.03 in1016.9 mb 0.02 in0.5 mm 0.03 in0.8 mm 0.02 in0.5 mm
12:15 PM 42.6°F5.9°C 38.1°F3.4°C 84% 3.1 mph SE5.0 kmh SE 8.3 mph13.4 kmh 30.03 in1016.9 mb 0.02 in0.5 mm 0.00 in0.0 mm 0.02 in0.5 mm
12:30 PM 42.6°F5.9°C 37.8°F3.2°C 83% 1.6 mph SE2.6 kmh SE 6.0 mph9.7 kmh 30.03 in1016.9 mb 0.02 in0.5 mm 0.00 in0.0 mm 0.02 in0.5 mm
12:45 PM 43.0°F6.1°C 38.5°F3.6°C 84% 2.2 mph SE3.5 kmh SE 5.4 mph8.7 kmh 30.03 in1016.9 mb 0.02 in0.5 mm 0.00 in0.0 mm 0.02 in0.5 mm
01:00 PM 43.2°F6.2°C 38.7°F3.7°C 84% 2.2 mph SE3.5 kmh SE 6.0 mph9.7 kmh 30.03 in1016.9 mb 0.00 in0.0 mm 0.00 in0.0 mm 0.02 in0.5 mm
01:15 PM 42.6°F5.9°C 38.1°F3.4°C 84% 1.6 mph SE2.6 kmh SE 6.0 mph9.7 kmh 30.03 in1016.9 mb 0.00 in0.0 mm 0.00 in0.0 mm 0.02 in0.5 mm
01:30 PM 42.3°F5.7°C 37.8°F3.2°C 84% 3.1 mph NNW5.0 kmh NNW 5.4 mph8.7 kmh 30.02 in1016.6 mb 0.00 in0.0 mm 0.00 in0.0 mm 0.02 in0.5 mm
01:45 PM 41.7°F5.4°C 36.3°F2.4°C 81% 6.0 mph NW9.7 kmh NW 9.3 mph15.0 kmh 30.01 in1016.3 mb 0.00 in0.0 mm 0.00 in0.0 mm 0.02 in0.5 mm
02:00 PM 41.2°F5.1°C 35.8°F2.1°C 81% 1.6 mph NNW2.6 kmh NNW 6.9 mph11.1 kmh 30.01 in1016.3 mb 0.00 in0.0 mm 0.00 in0.0 mm 0.02 in0.5 mm
02:15 PM 40.8°F4.9°C 35.5°F1.9°C 81% 2.2 mph NW3.5 kmh NW 7.6 mph12.2 kmh 30.00 in1015.9 mb 0.02 in0.5 mm 0.08 in2.0 mm 0.04 in1.0 mm
02:30 PM 41.0°F5.0°C 35.6°F2.0°C 81% 6.0 mph ESE9.7 kmh ESE 9.2 mph14.8 kmh 30.00 in1015.9 mb 0.04 in1.0 mm 0.08 in2.0 mm 0.05 in1.3 mm
02:45 PM 40.8°F4.9°C 35.5°F1.9°C 81% 3.8 mph SSE6.1 kmh SSE 8.3 mph13.4 kmh 29.99 in1015.6 mb 0.07 in1.8 mm 0.12 in3.0 mm 0.09 in2.3 mm
03:00 PM 40.8°F4.9°C 35.5°F1.9°C 81% 2.2 mph SW3.5 kmh SW 8.3 mph13.4 kmh 30.02 in1016.6 mb 0.12 in3.0 mm 0.07 in1.8 mm 0.14 in3.6 mm
03:15 PM 40.1°F4.5°C 34.7°F1.5°C 81% 4.5 mph SE7.2 kmh SE 9.2 mph14.8 kmh 30.01 in1016.3 mb 0.21 in5.3 mm 0.36 in9.1 mm 0.25 in6.4 mm
03:30 PM 39.7°F4.3°C 34.4°F1.3°C 81% 7.6 mph SE12.2 kmh SE 19.0 mph30.6 kmh 30.01 in1016.3 mb 0.29 in7.4 mm 0.32 in8.1 mm 0.34 in8.6 mm
03:45 PM 40.1°F4.5°C 34.7°F1.5°C 81% 4.5 mph ESE7.2 kmh ESE 27.3 mph43.9 kmh 30.02 in1016.6 mb 0.34 in8.6 mm 0.20 in5.1 mm 0.43 in10.9 mm
04:00 PM 39.6°F4.2°C 34.2°F1.2°C 81% 6.0 mph ESE9.7 kmh ESE 17.4 mph28.0 kmh 30.03 in1016.9 mb 0.41 in10.4 mm 0.09 in2.3 mm 0.55 in14.0 mm
04:15 PM 39.2°F4.0°C 34.2°F1.2°C 82% 13.0 mph ESE20.9 kmh ESE 19.0 mph30.6 kmh 30.02 in1016.6 mb 0.41 in10.4 mm 0.00 in0.0 mm 0.66 in16.8 mm
04:30 PM 39.0°F3.9°C 34.6°F1.4°C 84% 10.7 mph SE17.2 kmh SE 17.4 mph28.0 kmh 30.03 in1016.9 mb 0.39 in9.9 mm 0.00 in0.0 mm 0.73 in18.5 mm
04:45 PM 39.4°F4.1°C 34.7°F1.5°C 83% 14.5 mph SE23.3 kmh SE 28.9 mph46.5 kmh 30.03 in1016.9 mb 0.34 in8.6 mm 0.00 in0.0 mm 0.78 in19.8 mm
05:00 PM 39.4°F4.1°C 34.4°F1.3°C 82% 18.3 mph ESE29.5 kmh ESE 22.8 mph36.7 kmh 30.02 in1016.6 mb 0.29 in7.4 mm 0.00 in0.0 mm 0.84 in21.3 mm
05:15 PM 39.9°F4.4°C 34.9°F1.6°C 82% 14.5 mph SE23.3 kmh SE 33.6 mph54.1 kmh 30.03 in1016.9 mb 0.23 in5.8 mm 0.00 in0.0 mm 0.91 in23.1 mm
05:30 PM 39.6°F4.2°C 34.5°F1.4°C 82% 15.9 mph SE25.6 kmh SE 26.6 mph42.8 kmh 30.02 in1016.6 mb 0.23 in5.8 mm 0.00 in0.0 mm 0.96 in24.4 mm
05:45 PM 39.7°F4.3°C 35.0°F1.7°C 83% 16.8 mph SE27.0 kmh SE 28.9 mph46.5 kmh 30.02 in1016.6 mb 0.25 in6.4 mm 0.08 in2.0 mm 1.03 in26.2 mm
06:00 PM 39.7°F4.3°C 35.6°F2.0°C 85% 13.6 mph SE21.9 kmh SE 22.1 mph35.6 kmh 30.03 in1016.9 mb 0.23 in5.8 mm 0.00 in0.0 mm 1.07 in27.2 mm
06:15 PM 39.7°F4.3°C 36.5°F2.5°C 88% 15.9 mph SE25.6 kmh SE 28.2 mph45.4 kmh 30.04 in1017.3 mb 0.21 in5.3 mm 0.00 in0.0 mm 1.12 in28.4 mm
06:30 PM 39.7°F4.3°C 37.1°F2.8°C 90% 19.0 mph SE30.6 kmh SE 30.4 mph48.9 kmh 30.04 in1017.3 mb 0.21 in5.3 mm 0.00 in0.0 mm 1.18 in30.0 mm
06:45 PM 39.7°F4.3°C 37.1°F2.8°C 90% 17.4 mph SE28.0 kmh SE 36.5 mph58.7 kmh 30.04 in1017.3 mb 0.20 in5.1 mm 0.00 in0.0 mm 1.23 in31.2 mm
07:00 PM 39.2°F4.0°C 36.8°F2.7°C 91% 19.0 mph ESE30.6 kmh ESE 27.3 mph43.9 kmh 30.06 in1017.9 mb 0.21 in5.3 mm 0.01 in0.3 mm 1.28 in32.5 mm
07:15 PM 38.8°F3.8°C 36.4°F2.4°C 91% 14.5 mph ESE23.3 kmh ESE 31.1 mph50.1 kmh 30.05 in1017.6 mb 0.20 in5.1 mm 0.00 in0.0 mm 1.32 in33.5 mm
07:30 PM 38.7°F3.7°C 36.5°F2.5°C 92% 11.4 mph SE18.3 kmh SE 23.5 mph37.8 kmh 30.06 in1017.9 mb 0.16 in4.1 mm 0.00 in0.0 mm 1.36 in34.5 mm
07:45 PM 38.7°F3.7°C 36.5°F2.5°C 92% 21.3 mph SE34.3 kmh SE 25.9 mph41.7 kmh 30.05 in1017.6 mb 0.18 in4.6 mm 0.08 in2.0 mm 1.41 in35.8 mm
08:00 PM 39.0°F3.9°C 36.9°F2.7°C 92% 21.3 mph SE34.3 kmh SE 31.1 mph50.1 kmh 30.05 in1017.6 mb 0.20 in5.1 mm 0.03 in0.8 mm 1.48 in37.6 mm
08:15 PM 39.2°F4.0°C 37.1°F2.8°C 92% 21.3 mph SE34.3 kmh SE 36.5 mph58.7 kmh 30.04 in1017.3 mb 0.21 in5.3 mm 0.04 in1.0 mm 1.53 in38.9 mm
08:30 PM 39.2°F4.0°C 37.1°F2.8°C 92% 20.6 mph SE33.2 kmh SE 36.5 mph58.7 kmh 30.05 in1017.6 mb 0.27 in6.9 mm 0.24 in6.1 mm 1.62 in41.1 mm
08:45 PM 38.8°F3.8°C 36.4°F2.4°C 91% 17.4 mph ESE28.0 kmh ESE 33.6 mph54.1 kmh 30.06 in1017.9 mb 0.27 in6.9 mm 0.00 in0.0 mm 1.68 in42.7 mm
09:00 PM 38.8°F3.8°C 36.4°F2.4°C 91% 20.6 mph SE33.2 kmh SE 36.5 mph58.7 kmh 30.05 in1017.6 mb 0.27 in6.9 mm 0.00 in0.0 mm 1.75 in44.5 mm
09:15 PM 38.8°F3.8°C 36.7°F2.6°C 92% 25.1 mph SE40.4 kmh SE 41.2 mph66.3 kmh 30.04 in1017.3 mb 0.30 in7.6 mm 0.12 in3.0 mm 1.84 in46.7 mm
09:30 PM 38.8°F3.8°C 36.7°F2.6°C 92% 24.4 mph SE39.3 kmh SE 36.5 mph58.7 kmh 30.03 in1016.9 mb 0.27 in6.9 mm 0.00 in0.0 mm 1.89 in48.0 mm
09:45 PM 38.8°F3.8°C 36.7°F2.6°C 92% 24.4 mph SE39.3 kmh SE 41.2 mph66.3 kmh 30.04 in1017.3 mb 0.27 in6.9 mm 0.00 in0.0 mm 1.96 in49.8 mm
10:00 PM 38.8°F3.8°C 36.7°F2.6°C 92% 19.0 mph ESE30.6 kmh ESE 32.7 mph52.6 kmh 30.04 in1017.3 mb 0.30 in7.6 mm 0.04 in1.0 mm 2.05 in52.1 mm
10:15 PM 39.0°F3.9°C 36.9°F2.7°C 92% 17.4 mph SE28.0 kmh SE 35.8 mph57.6 kmh 30.04 in1017.3 mb 0.27 in6.9 mm 0.00 in0.0 mm 2.10 in53.3 mm
10:30 PM 39.0°F3.9°C 36.9°F2.7°C 92% 22.1 mph SE35.6 kmh SE 35.8 mph57.6 kmh 30.05 in1017.6 mb 0.34 in8.6 mm 0.28 in7.1 mm 2.23 in56.6 mm
10:45 PM 38.8°F3.8°C 36.7°F2.6°C 92% 16.8 mph SE27.0 kmh SE 42.5 mph68.4 kmh 30.04 in1017.3 mb 0.36 in9.1 mm 0.08 in2.0 mm 2.32 in58.9 mm
11:00 PM 38.7°F3.7°C 36.5°F2.5°C 92% 16.8 mph ESE27.0 kmh ESE 34.9 mph56.2 kmh 30.04 in1017.3 mb 0.36 in9.1 mm 0.00 in0.0 mm 2.41 in61.2 mm
11:15 PM 38.8°F3.8°C 37.0°F2.8°C 93% 26.6 mph SE42.8 kmh SE 32.0 mph51.5 kmh 30.04 in1017.3 mb 0.39 in9.9 mm 0.12 in3.0 mm 2.50 in63.5 mm
11:30 PM 38.8°F3.8°C 37.0°F2.8°C 93% 30.4 mph ESE48.9 kmh ESE 40.3 mph64.9 kmh 30.05 in1017.6 mb 0.36 in9.1 mm 0.00 in0.0 mm 2.59 in65.8 mm
11:45 PM 38.8°F3.8°C 37.0°F2.8°C 93% 13.0 mph SE20.9 kmh SE 28.2 mph45.4 kmh 30.06 in1017.9 mb 0.30 in7.6 mm 0.00 in0.0 mm 2.62 in66.5 mm